createdAt,value
2023-03-21T00:00:46.200Z,79.36
2023-03-21T00:06:17.926Z,79.01
2023-03-21T00:11:50.172Z,78.89
2023-03-21T00:17:21.598Z,78.65
2023-03-21T00:22:53.669Z,78.93
2023-03-21T00:28:25.130Z,78.89
2023-03-21T00:33:57.741Z,78.88
2023-03-21T00:39:29.476Z,78.81
2023-03-21T00:45:01.535Z,79.09
2023-03-21T00:50:35.982Z,78.90
2023-03-21T00:56:07.631Z,78.72
2023-03-21T01:01:39.396Z,78.80
2023-03-21T01:07:11.055Z,78.52
2023-03-21T01:12:43.170Z,78.49
2023-03-21T01:18:15.317Z,78.43
2023-03-21T01:23:47.518Z,78.22
2023-03-21T01:29:18.934Z,78.07
2023-03-21T01:34:51.700Z,77.98
2023-03-21T01:42:45.969Z,77.66
2023-03-21T01:48:17.689Z,77.67
2023-03-21T01:53:49.312Z,77.53
2023-03-21T01:59:20.857Z,77.41
2023-03-21T02:04:52.636Z,77.40
2023-03-21T02:10:25.071Z,77.67
2023-03-21T02:15:57.139Z,77.34
2023-03-21T02:21:29.015Z,77.75
2023-03-21T02:27:04.235Z,77.82
2023-03-21T02:32:37.767Z,78.76
2023-03-21T02:38:04.397Z,79.00
2023-03-21T02:43:36.040Z,79.06
2023-03-21T02:49:08.025Z,79.34
2023-03-21T02:54:48.110Z,79.41
2023-03-21T03:00:16.693Z,79.35
2023-03-21T03:05:43.451Z,78.99
2023-03-21T03:11:15.738Z,78.95
2023-03-21T03:16:47.912Z,79.17
2023-03-21T03:22:19.891Z,79.23
2023-03-21T03:27:52.213Z,79.59
2023-03-21T03:33:24.444Z,79.65
2023-03-21T03:38:56.017Z,79.59
2023-03-21T03:44:28.246Z,79.74
2023-03-21T03:50:00.218Z,79.84
2023-03-21T03:55:32.401Z,80.09
2023-03-21T04:01:04.317Z,79.84
2023-03-21T04:06:36.364Z,80.06
2023-03-21T04:12:08.190Z,80.04
2023-03-21T04:17:40.142Z,79.85
2023-03-21T04:23:12.078Z,79.77
2023-03-21T04:28:43.803Z,79.54
2023-03-21T04:34:15.787Z,79.59
2023-03-21T04:39:47.826Z,79.71
2023-03-21T04:45:20.406Z,79.58
2023-03-21T04:50:52.289Z,79.35
2023-03-21T04:56:24.774Z,79.92
2023-03-21T05:01:57.253Z,78.75
2023-03-21T05:07:29.362Z,79.04
2023-03-21T05:13:01.095Z,79.83
2023-03-21T05:18:33.066Z,79.98
2023-03-21T05:24:05.202Z,80.12
2023-03-21T05:29:36.525Z,80.17
2023-03-21T05:35:08.118Z,80.24
2023-03-21T05:40:40.326Z,80.92
2023-03-21T05:46:12.216Z,80.73
2023-03-21T05:51:44.382Z,80.85
2023-03-21T05:57:17.299Z,80.90
2023-03-21T06:02:48.962Z,80.78
2023-03-21T06:08:20.589Z,80.74
2023-03-21T06:13:52.236Z,80.39
2023-03-21T06:19:24.268Z,80.36
2023-03-21T06:24:55.826Z,79.95
2023-03-21T06:30:27.935Z,79.17
2023-03-21T06:36:00.581Z,78.71
2023-03-21T06:41:32.558Z,78.12
2023-03-21T06:47:04.831Z,77.85
2023-03-21T06:52:37.569Z,77.23
2023-03-21T06:58:09.881Z,77.10
2023-03-21T07:03:41.874Z,76.16
2023-03-21T07:09:13.803Z,75.50
2023-03-21T07:14:45.953Z,74.39
2023-03-21T07:20:18.111Z,74.03
2023-03-21T07:25:49.855Z,73.45
2023-03-21T07:31:21.982Z,73.05
2023-03-21T07:36:53.960Z,72.38
2023-03-21T07:42:26.055Z,71.39
2023-03-21T07:47:58.311Z,70.94
2023-03-21T07:53:30.494Z,70.26
2023-03-21T07:59:02.746Z,69.97
2023-03-21T08:04:35.108Z,69.57
2023-03-21T08:10:07.528Z,68.73
2023-03-21T08:15:39.813Z,67.62
2023-03-21T08:21:11.746Z,66.55
2023-03-21T08:26:43.847Z,65.54
2023-03-21T08:32:15.875Z,65.21
2023-03-21T08:37:47.922Z,65.07
2023-03-21T08:43:20.323Z,65.24
2023-03-21T08:48:52.336Z,63.73
2023-03-21T08:54:24.134Z,63.18
2023-03-21T08:59:56.063Z,62.29
2023-03-21T09:05:33.982Z,61.90
2023-03-21T09:11:06.706Z,60.42
2023-03-21T09:16:38.915Z,60.96
2023-03-21T09:22:11.100Z,58.49
2023-03-21T09:27:45.850Z,57.87
2023-03-21T09:38:48.622Z,57.10
2023-03-21T09:44:21.324Z,55.92
2023-03-21T09:49:56.499Z,54.40
2023-03-21T09:55:24.720Z,53.55
2023-03-21T10:00:56.909Z,52.86
2023-03-21T10:06:28.697Z,52.65
2023-03-21T10:12:00.900Z,51.92
2023-03-21T10:17:33.301Z,51.28
2023-03-21T10:23:05.353Z,51.51
2023-03-21T10:34:07.031Z,50.99
2023-03-21T10:45:08.348Z,49.81
2023-03-21T10:50:40.752Z,50.45
2023-03-21T11:04:03.298Z,53.01
2023-03-21T11:09:35.113Z,49.84
2023-03-21T11:15:07.174Z,52.82
2023-03-21T11:20:38.812Z,50.46
2023-03-21T11:26:10.550Z,49.49
2023-03-21T11:42:42.246Z,48.53
2023-03-21T11:48:14.510Z,49.45
2023-03-21T11:53:45.905Z,51.13
2023-03-21T11:59:17.699Z,50.52
2023-03-21T12:04:49.711Z,49.80
2023-03-21T12:10:21.486Z,48.88
2023-03-21T12:15:55.440Z,47.45
2023-03-21T12:21:24.820Z,48.30
2023-03-21T12:26:58.169Z,48.74
2023-03-21T12:32:29.095Z,49.27
2023-03-21T12:38:01.030Z,49.77
2023-03-21T12:43:32.657Z,49.17
2023-03-21T12:49:04.641Z,49.12
2023-03-21T12:54:36.417Z,50.18
2023-03-21T13:00:08.233Z,50.54
2023-03-21T13:05:39.993Z,48.83
2023-03-21T13:11:11.496Z,48.82
2023-03-21T13:16:43.507Z,49.71
2023-03-21T13:22:15.598Z,49.73
2023-03-21T13:27:47.431Z,48.19
2023-03-21T13:33:19.289Z,47.39
2023-03-21T13:38:51.036Z,48.02
2023-03-21T13:44:23.026Z,48.25
2023-03-21T13:49:54.731Z,48.37
2023-03-21T13:55:26.550Z,48.14
2023-03-21T14:06:28.286Z,46.32
2023-03-21T14:12:07.084Z,45.99
2023-03-21T14:17:34.076Z,45.73
2023-03-21T14:23:06.385Z,46.99
2023-03-21T14:28:38.031Z,47.39
2023-03-21T14:34:09.887Z,48.52
2023-03-21T14:39:41.796Z,49.25
2023-03-21T14:45:14.094Z,49.32
2023-03-21T14:50:46.221Z,50.07
2023-03-21T14:56:18.049Z,50.16
2023-03-21T15:01:50.190Z,51.00
2023-03-21T15:07:22.364Z,51.12
2023-03-21T15:12:54.269Z,51.22
2023-03-21T15:18:26.714Z,52.02
2023-03-21T15:23:59.024Z,51.42
2023-03-21T15:29:31.456Z,51.53
2023-03-21T15:35:03.284Z,52.10
2023-03-21T15:40:35.083Z,51.13
2023-03-21T15:46:06.776Z,51.46
2023-03-21T15:51:38.601Z,51.51
2023-03-21T15:57:10.547Z,51.46
2023-03-21T16:02:42.808Z,52.15
2023-03-21T16:08:14.102Z,52.44
2023-03-21T16:13:46.157Z,53.23
2023-03-21T16:19:18.083Z,52.82
2023-03-21T16:24:49.753Z,52.51
2023-03-21T16:30:21.266Z,52.60
2023-03-21T16:35:52.991Z,53.36
2023-03-21T16:41:24.379Z,53.59
2023-03-21T16:46:57.000Z,53.49
2023-03-21T16:52:28.990Z,54.14
2023-03-21T16:58:01.054Z,54.28
2023-03-21T17:03:32.738Z,54.75
2023-03-21T17:09:04.260Z,55.18
2023-03-21T17:14:35.586Z,55.30
2023-03-21T17:20:07.234Z,55.57
2023-03-21T17:25:39.069Z,55.59
2023-03-21T17:31:10.988Z,55.87
2023-03-21T17:36:42.720Z,56.00
2023-03-21T17:42:14.496Z,56.76
2023-03-21T17:47:46.455Z,57.06
2023-03-21T17:53:18.766Z,57.65
2023-03-21T18:04:20.342Z,58.78
2023-03-21T18:09:52.424Z,59.26
2023-03-21T18:15:24.206Z,59.35
2023-03-21T18:20:57.943Z,59.49
2023-03-21T18:26:27.492Z,59.43
2023-03-21T18:32:06.274Z,60.09
2023-03-21T18:37:31.020Z,60.76
2023-03-21T18:43:56.100Z,60.83
2023-03-21T18:48:35.722Z,61.84
2023-03-21T18:54:07.166Z,62.40
2023-03-21T18:59:38.731Z,62.04
2023-03-21T19:05:10.503Z,62.04
2023-03-21T19:10:42.465Z,63.13
2023-03-21T19:16:14.350Z,63.71
2023-03-21T19:21:46.388Z,63.86
2023-03-21T19:27:18.657Z,63.07
2023-03-21T19:32:50.309Z,63.73
2023-03-21T19:38:22.162Z,64.30
2023-03-21T19:43:56.393Z,63.89
2023-03-21T19:49:37.033Z,64.42
2023-03-21T19:54:57.226Z,64.78
2023-03-21T19:57:21.541Z,64.21
2023-03-21T20:02:53.354Z,64.17
2023-03-21T20:08:25.157Z,64.68
2023-03-21T20:13:57.326Z,64.33
2023-03-21T20:19:29.958Z,64.68
2023-03-21T20:25:02.395Z,65.26
2023-03-21T20:30:34.520Z,65.88
2023-03-21T20:41:38.217Z,65.74
2023-03-21T20:47:09.895Z,65.99
2023-03-21T20:53:09.814Z,65.86
2023-03-21T20:58:36.724Z,67.80
2023-03-21T21:03:45.734Z,68.36
2023-03-21T21:09:17.435Z,69.32
2023-03-21T21:14:49.273Z,69.24
2023-03-21T21:20:21.110Z,69.75
2023-03-21T21:25:52.663Z,70.22
2023-03-21T21:31:24.566Z,70.78
2023-03-21T21:36:56.250Z,71.06
2023-03-21T21:42:27.822Z,71.52
2023-03-21T21:47:59.844Z,71.22
2023-03-21T21:53:31.465Z,71.67
2023-03-21T21:59:03.691Z,71.61
2023-03-21T22:04:35.614Z,72.31
2023-03-21T22:10:07.603Z,72.17
2023-03-21T22:15:39.967Z,71.72
2023-03-21T22:21:11.926Z,71.09
2023-03-21T22:26:43.598Z,71.36
2023-03-21T22:32:15.351Z,71.03
2023-03-21T22:37:47.198Z,71.20
2023-03-21T22:43:20.021Z,71.29
2023-03-21T22:48:52.267Z,70.96
2023-03-21T22:54:24.336Z,71.30
2023-03-21T22:59:56.245Z,71.41
2023-03-21T23:05:28.474Z,71.60
2023-03-21T23:11:00.241Z,71.90
2023-03-21T23:16:32.183Z,72.36
2023-03-21T23:22:03.899Z,72.57
2023-03-21T23:27:35.898Z,72.43
2023-03-21T23:33:07.618Z,72.37
2023-03-21T23:38:39.626Z,72.97
2023-03-21T23:44:11.515Z,73.51
2023-03-21T23:49:44.034Z,73.55
2023-03-21T23:55:16.067Z,74.14
